createdAt,value
2023-03-06T00:00:55.769Z,80.79
2023-03-06T00:01:55.745Z,80.89
2023-03-06T00:02:55.741Z,80.99
2023-03-06T00:03:55.799Z,81.62
2023-03-06T00:04:55.713Z,81.56
2023-03-06T00:05:55.766Z,81.66
2023-03-06T00:06:55.718Z,81.45
2023-03-06T00:07:55.683Z,81.30
2023-03-06T00:08:55.682Z,81.30
2023-03-06T00:09:55.662Z,81.41
2023-03-06T00:10:55.682Z,81.41
2023-03-06T00:11:55.645Z,81.41
2023-03-06T00:12:55.637Z,81.51
2023-03-06T00:13:55.623Z,81.62
2023-03-06T00:14:55.610Z,81.45
2023-03-06T00:15:55.662Z,81.41
2023-03-06T00:16:55.587Z,81.10
2023-03-06T00:17:55.576Z,81.76
2023-03-06T00:18:55.587Z,81.35
2023-03-06T00:19:55.556Z,81.66
2023-03-06T00:20:55.556Z,81.90
2023-03-06T00:21:55.527Z,82.63
2023-03-06T00:22:55.549Z,83.18
2023-03-06T00:23:55.512Z,83.18
2023-03-06T00:24:55.496Z,83.81
2023-03-06T00:25:55.509Z,83.91
2023-03-06T00:26:55.483Z,84.33
2023-03-06T00:27:55.466Z,84.53
2023-03-06T00:28:55.454Z,84.53
2023-03-06T00:29:55.467Z,84.22
2023-03-06T00:30:55.466Z,84.43
2023-03-06T00:31:55.419Z,84.84
2023-03-06T00:32:55.425Z,84.33
2023-03-06T00:33:55.404Z,84.84
2023-03-06T00:34:55.394Z,84.84
2023-03-06T00:35:55.516Z,84.64
2023-03-06T00:36:55.438Z,84.53
2023-03-06T00:37:55.428Z,84.53
2023-03-06T00:38:55.403Z,84.84
2023-03-06T00:39:55.457Z,84.84
2023-03-06T00:40:55.327Z,84.16
2023-03-06T00:41:55.335Z,84.82
2023-03-06T00:42:55.318Z,85.34
2023-03-06T00:43:55.293Z,85.34
2023-03-06T00:44:55.287Z,85.96
2023-03-06T00:45:55.297Z,85.96
2023-03-06T00:46:55.302Z,86.21
2023-03-06T00:47:55.265Z,86.77
2023-03-06T00:48:55.236Z,87.15
2023-03-06T00:49:55.241Z,87.35
2023-03-06T00:50:55.225Z,86.83
2023-03-06T00:51:55.224Z,87.25
2023-03-06T00:52:55.199Z,87.35
2023-03-06T00:53:55.191Z,87.32
2023-03-06T00:54:55.207Z,87.32
2023-03-06T00:55:55.164Z,86.69
2023-03-06T00:56:55.172Z,86.90
2023-03-06T00:57:55.163Z,87.01
2023-03-06T00:58:55.160Z,86.59
2023-03-06T00:59:55.120Z,86.80
2023-03-06T01:00:55.130Z,86.34
2023-03-06T01:01:55.159Z,86.44
2023-03-06T01:02:55.090Z,86.03
2023-03-06T01:03:55.081Z,85.82
2023-03-06T01:04:55.094Z,85.41
2023-03-06T01:05:55.059Z,85.72
2023-03-06T01:06:55.122Z,85.30
2023-03-06T01:07:55.035Z,85.20
2023-03-06T01:08:55.025Z,85.30
2023-03-06T01:09:55.015Z,85.30
2023-03-06T01:10:55.022Z,85.41
2023-03-06T01:11:55.002Z,85.26
2023-03-06T01:13:02.034Z,84.89
2023-03-06T01:13:54.977Z,84.78
2023-03-06T01:14:54.953Z,85.30
2023-03-06T01:15:54.944Z,85.30
2023-03-06T01:16:54.939Z,85.30
2023-03-06T01:17:54.926Z,85.30
2023-03-06T01:18:54.908Z,85.16
2023-03-06T01:19:54.899Z,85.05
2023-03-06T01:20:54.888Z,84.64
2023-03-06T01:21:54.905Z,84.64
2023-03-06T01:22:54.868Z,84.78
2023-03-06T01:23:54.858Z,84.74
2023-03-06T01:24:54.861Z,85.36
2023-03-06T01:25:54.834Z,85.36
2023-03-06T01:26:54.867Z,85.47
2023-03-06T01:27:54.809Z,85.57
2023-03-06T01:28:54.802Z,85.36
2023-03-06T01:29:54.789Z,85.47
2023-03-06T01:30:54.784Z,85.36
2023-03-06T01:31:54.811Z,85.43
2023-03-06T01:32:54.767Z,85.36
2023-03-06T01:33:54.746Z,85.47
2023-03-06T01:34:54.733Z,85.26
2023-03-06T01:35:54.809Z,85.16
2023-03-06T01:36:54.740Z,85.47
2023-03-06T01:37:54.706Z,85.43
2023-03-06T01:38:54.716Z,85.47
2023-03-06T01:39:54.688Z,85.26
2023-03-06T01:40:54.676Z,85.26
2023-03-06T01:41:54.695Z,85.12
2023-03-06T01:42:54.702Z,85.26
2023-03-06T01:43:54.642Z,85.57
2023-03-06T01:44:54.638Z,85.05
2023-03-06T01:45:54.667Z,85.74
2023-03-06T01:46:54.637Z,85.64
2023-03-06T01:47:54.604Z,85.47
2023-03-06T01:48:54.592Z,85.64
2023-03-06T01:49:54.582Z,85.53
2023-03-06T01:50:54.580Z,85.64
2023-03-06T01:51:54.591Z,85.74
2023-03-06T01:52:54.548Z,85.12
2023-03-06T01:53:54.555Z,85.12
2023-03-06T01:54:54.596Z,85.22
2023-03-06T01:55:54.521Z,85.33
2023-03-06T01:56:54.529Z,85.12
2023-03-06T01:57:54.497Z,85.22
2023-03-06T01:58:54.577Z,85.02
2023-03-06T01:59:54.476Z,85.22
2023-03-06T02:00:54.515Z,85.39
2023-03-06T02:01:54.539Z,85.43
2023-03-06T02:02:54.443Z,85.33
2023-03-06T02:03:54.432Z,85.39
2023-03-06T02:04:54.423Z,85.43
2023-03-06T02:05:54.418Z,85.29
2023-03-06T02:06:54.418Z,85.19
2023-03-06T02:07:54.393Z,85.39
2023-03-06T02:08:54.380Z,85.12
2023-03-06T02:09:54.395Z,85.22
2023-03-06T02:10:54.357Z,85.08
2023-03-06T02:11:54.369Z,85.39
2023-03-06T02:12:54.336Z,85.12
2023-03-06T02:13:54.333Z,85.43
2023-03-06T02:14:54.362Z,85.33
2023-03-06T02:15:54.312Z,85.12
2023-03-06T02:16:54.325Z,85.64
2023-03-06T02:17:54.301Z,85.33
2023-03-06T02:18:54.291Z,85.85
2023-03-06T02:19:54.282Z,85.74
2023-03-06T02:20:54.258Z,85.85
2023-03-06T02:21:54.264Z,85.74
2023-03-06T02:22:54.238Z,85.95
2023-03-06T02:23:54.227Z,85.85
2023-03-06T02:24:54.229Z,85.91
2023-03-06T02:25:54.207Z,85.85
2023-03-06T02:26:54.213Z,85.81
2023-03-06T02:27:54.192Z,85.85
2023-03-06T02:28:54.169Z,85.74
2023-03-06T02:29:54.159Z,86.05
2023-03-06T02:30:54.273Z,85.71
2023-03-06T02:31:54.150Z,86.05
2023-03-06T02:32:54.129Z,86.02
2023-03-06T02:33:54.119Z,86.05
2023-03-06T02:34:54.116Z,86.05
2023-03-06T02:35:54.140Z,85.91
2023-03-06T02:36:54.096Z,86.05
2023-03-06T02:37:54.076Z,86.05
2023-03-06T02:38:54.064Z,86.05
2023-03-06T02:39:54.052Z,86.05
2023-03-06T02:40:54.058Z,85.95
2023-03-06T02:41:54.048Z,86.05
2023-03-06T02:42:54.019Z,86.26
2023-03-06T02:43:54.013Z,86.05
2023-03-06T02:44:53.997Z,86.57
2023-03-06T02:45:54.064Z,86.47
2023-03-06T02:46:54.007Z,86.36
2023-03-06T02:47:53.965Z,86.36
2023-03-06T02:48:53.953Z,86.68
2023-03-06T02:49:53.944Z,86.78
2023-03-06T02:50:53.931Z,86.68
2023-03-06T02:51:53.947Z,86.57
2023-03-06T02:52:53.911Z,86.36
2023-03-06T02:53:53.903Z,86.57
2023-03-06T02:54:53.894Z,86.78
2023-03-06T02:55:53.879Z,86.47
2023-03-06T02:56:53.897Z,86.36
2023-03-06T02:57:53.900Z,87.30
2023-03-06T02:58:53.849Z,87.09
2023-03-06T02:59:53.850Z,86.78
2023-03-06T03:00:53.833Z,86.68
2023-03-06T03:01:53.815Z,86.88
2023-03-06T03:02:53.866Z,86.57
2023-03-06T03:03:53.802Z,86.78
2023-03-06T03:04:53.796Z,86.36
2023-03-06T03:05:53.771Z,86.47
2023-03-06T03:06:53.808Z,86.78
2023-03-06T03:07:53.793Z,86.99
2023-03-06T03:08:53.734Z,86.68
2023-03-06T03:09:53.733Z,86.68
2023-03-06T03:10:53.721Z,86.78
2023-03-06T03:11:53.702Z,86.57
2023-03-06T03:12:53.711Z,86.78
2023-03-06T03:13:53.687Z,86.78
2023-03-06T03:14:53.671Z,86.57
2023-03-06T03:15:53.697Z,86.99
2023-03-06T03:16:53.650Z,86.68
2023-03-06T03:17:53.687Z,86.68
2023-03-06T03:18:53.648Z,86.88
2023-03-06T03:19:53.627Z,87.09
2023-03-06T03:20:53.607Z,86.99
2023-03-06T03:21:53.621Z,86.99
2023-03-06T03:22:53.622Z,87.19
2023-03-06T03:23:53.579Z,87.26
2023-03-06T03:24:53.635Z,87.30
2023-03-06T03:25:53.568Z,86.26
2023-03-06T03:26:53.544Z,86.99
2023-03-06T03:27:53.554Z,86.26
2023-03-06T03:28:53.522Z,86.57
2023-03-06T03:29:53.515Z,86.43
2023-03-06T03:30:53.521Z,86.43
2023-03-06T03:31:53.495Z,86.78
2023-03-06T03:32:53.509Z,86.26
2023-03-06T03:33:53.476Z,86.88
2023-03-06T03:34:53.478Z,86.57
2023-03-06T03:35:53.470Z,86.88
2023-03-06T03:36:53.435Z,86.78
2023-03-06T03:37:53.452Z,86.68
2023-03-06T03:38:53.426Z,86.74
2023-03-06T03:39:53.413Z,86.68
2023-03-06T03:40:53.397Z,86.43
2023-03-06T03:41:53.384Z,86.57
2023-03-06T03:42:53.399Z,86.54
2023-03-06T03:43:53.364Z,86.43
2023-03-06T03:44:53.354Z,86.47
2023-03-06T03:45:53.372Z,86.36
2023-03-06T03:46:53.352Z,86.57
2023-03-06T03:47:53.339Z,86.54
2023-03-06T03:48:53.321Z,86.54
2023-03-06T03:49:53.301Z,86.78
2023-03-06T03:50:53.318Z,86.57
2023-03-06T03:51:53.283Z,86.22
2023-03-06T03:52:53.290Z,86.68
2023-03-06T03:53:53.258Z,86.43
2023-03-06T03:54:53.251Z,86.43
2023-03-06T03:55:53.236Z,87.19
2023-03-06T03:56:53.228Z,86.47
2023-03-06T03:57:53.241Z,86.74
2023-03-06T03:58:53.199Z,86.54
2023-03-06T03:59:53.195Z,86.22
2023-03-06T04:00:53.181Z,86.43
2023-03-06T04:01:53.198Z,86.43
2023-03-06T04:02:53.175Z,86.33
2023-03-06T04:03:53.151Z,87.16
2023-03-06T04:04:53.226Z,87.30
2023-03-06T04:05:53.133Z,87.05
2023-03-06T04:06:53.136Z,86.99
2023-03-06T04:07:53.118Z,86.78
2023-03-06T04:08:53.112Z,86.78
2023-03-06T04:09:53.085Z,86.85
2023-03-06T04:10:53.073Z,86.78
2023-03-06T04:11:53.076Z,87.19
2023-03-06T04:12:53.067Z,87.51
2023-03-06T04:13:53.043Z,86.74
2023-03-06T04:14:53.027Z,86.78
2023-03-06T04:15:53.119Z,87.16
2023-03-06T04:16:53.012Z,87.05
2023-03-06T04:17:53.049Z,87.16
2023-03-06T04:18:52.989Z,86.95
2023-03-06T04:19:53.017Z,86.74
2023-03-06T04:20:53.008Z,86.74
2023-03-06T04:21:52.964Z,86.74
2023-03-06T04:22:52.985Z,86.74
2023-03-06T04:23:52.931Z,86.85
2023-03-06T04:24:52.934Z,86.95
2023-03-06T04:25:52.915Z,86.74
2023-03-06T04:26:52.904Z,86.74
2023-03-06T04:27:52.903Z,86.85
2023-03-06T04:28:52.876Z,86.57
2023-03-06T04:29:52.866Z,87.19
2023-03-06T04:30:52.860Z,87.30
2023-03-06T04:31:52.850Z,87.19
2023-03-06T04:32:52.845Z,87.19
2023-03-06T04:33:52.846Z,87.09
2023-03-06T04:34:52.827Z,87.19
2023-03-06T04:35:52.857Z,87.40
2023-03-06T04:36:52.797Z,86.88
2023-03-06T04:37:52.812Z,86.88
2023-03-06T04:38:52.847Z,86.88
2023-03-06T04:39:52.771Z,86.30
2023-03-06T04:40:52.758Z,86.57
2023-03-06T04:41:52.758Z,86.78
2023-03-06T04:42:52.744Z,86.61
2023-03-06T04:43:52.741Z,86.82
2023-03-06T04:44:52.712Z,86.82
2023-03-06T04:45:52.736Z,86.30
2023-03-06T04:46:52.686Z,86.19
2023-03-06T04:47:52.674Z,86.09
2023-03-06T04:48:52.679Z,86.34
2023-03-06T04:49:52.655Z,86.13
2023-03-06T04:50:52.641Z,86.76
2023-03-06T04:51:52.635Z,86.55
2023-03-06T04:52:52.645Z,87.34
2023-03-06T04:53:52.616Z,86.96
2023-03-06T04:54:52.617Z,87.38
2023-03-06T04:55:52.604Z,87.38
2023-03-06T04:56:52.587Z,87.27
2023-03-06T04:57:52.587Z,87.34
2023-03-06T04:58:52.562Z,87.27
2023-03-06T04:59:52.555Z,87.07
2023-03-06T05:00:52.575Z,87.38
2023-03-06T05:01:52.545Z,87.38
2023-03-06T05:02:52.556Z,86.86
2023-03-06T05:03:52.517Z,87.38
2023-03-06T05:04:52.495Z,87.01
2023-03-06T05:05:52.484Z,86.90
2023-03-06T05:06:52.475Z,87.42
2023-03-06T05:07:52.477Z,87.17
2023-03-06T05:08:52.453Z,87.27
2023-03-06T05:09:52.436Z,86.86
2023-03-06T05:10:52.445Z,86.86
2023-03-06T05:11:52.415Z,86.96
2023-03-06T05:12:52.434Z,87.11
2023-03-06T05:13:52.392Z,86.80
2023-03-06T05:14:52.385Z,87.32
2023-03-06T05:15:52.373Z,87.32
2023-03-06T05:16:52.362Z,87.27
2023-03-06T05:17:52.392Z,87.27
2023-03-06T05:18:52.345Z,87.27
2023-03-06T05:19:52.327Z,87.27
2023-03-06T05:20:52.332Z,87.38
2023-03-06T05:21:52.325Z,86.86
2023-03-06T05:22:52.323Z,87.38
2023-03-06T05:23:52.286Z,87.48
2023-03-06T05:24:52.274Z,86.86
2023-03-06T05:25:52.274Z,86.86
2023-03-06T05:26:52.272Z,87.27
2023-03-06T05:27:52.280Z,87.27
2023-03-06T05:28:52.233Z,87.17
2023-03-06T05:29:52.230Z,86.51
2023-03-06T05:30:52.225Z,87.38
2023-03-06T05:31:52.251Z,87.24
2023-03-06T05:32:52.294Z,87.13
2023-03-06T05:33:52.177Z,86.93
2023-03-06T05:34:52.183Z,86.82
2023-03-06T05:35:52.196Z,87.13
2023-03-06T05:36:52.149Z,86.61
2023-03-06T05:37:52.159Z,86.41
2023-03-06T05:38:52.146Z,86.41
2023-03-06T05:39:52.121Z,86.51
2023-03-06T05:40:52.110Z,86.19
2023-03-06T05:41:52.098Z,86.41
2023-03-06T05:42:52.101Z,86.30
2023-03-06T05:43:52.087Z,86.13
2023-03-06T05:44:52.071Z,86.96
2023-03-06T05:45:52.096Z,86.86
2023-03-06T05:46:52.058Z,87.24
2023-03-06T05:47:52.031Z,87.17
2023-03-06T05:48:52.039Z,86.55
2023-03-06T05:49:52.016Z,86.55
2023-03-06T05:50:52.007Z,86.65
2023-03-06T05:51:51.990Z,87.38
2023-03-06T05:52:52.018Z,86.96
2023-03-06T05:53:51.970Z,87.07
2023-03-06T05:54:52.004Z,87.17
2023-03-06T05:55:51.949Z,87.17
2023-03-06T05:56:51.942Z,86.86
2023-03-06T05:57:51.955Z,86.86
2023-03-06T05:58:51.959Z,87.07
2023-03-06T05:59:51.916Z,86.96
2023-03-06T06:00:51.897Z,87.07
2023-03-06T06:01:51.880Z,87.27
2023-03-06T06:02:51.874Z,87.11
2023-03-06T06:03:51.918Z,86.90
2023-03-06T06:04:51.852Z,87.01
2023-03-06T06:05:51.840Z,86.59
2023-03-06T06:06:51.833Z,87.01
2023-03-06T06:07:51.820Z,87.42
2023-03-06T06:08:51.837Z,87.52
2023-03-06T06:09:51.795Z,87.21
2023-03-06T06:10:53.488Z,87.42
2023-03-06T06:11:51.772Z,86.90
2023-03-06T06:12:51.764Z,86.55
2023-03-06T06:13:51.777Z,86.90
2023-03-06T06:14:51.760Z,87.01
2023-03-06T06:15:51.756Z,86.96
2023-03-06T06:16:51.720Z,87.07
2023-03-06T06:17:51.713Z,87.01
2023-03-06T06:18:51.712Z,87.01
2023-03-06T06:19:51.688Z,86.80
2023-03-06T06:20:51.682Z,87.38
2023-03-06T06:21:51.672Z,86.86
2023-03-06T06:22:51.658Z,86.86
2023-03-06T06:23:51.655Z,87.27
2023-03-06T06:24:51.638Z,86.55
2023-03-06T06:25:51.631Z,86.55
2023-03-06T06:26:51.620Z,86.65
2023-03-06T06:27:51.606Z,86.55
2023-03-06T06:28:51.615Z,86.55
2023-03-06T06:29:51.602Z,86.65
2023-03-06T06:30:51.651Z,86.65
2023-03-06T06:31:51.567Z,86.30
2023-03-06T06:32:51.559Z,86.30
2023-03-06T06:33:51.540Z,86.30
2023-03-06T06:34:51.564Z,86.24
2023-03-06T06:35:51.587Z,86.03
2023-03-06T06:36:53.420Z,86.34
2023-03-06T06:37:51.500Z,85.99
2023-03-06T06:38:51.516Z,86.19
2023-03-06T06:39:51.494Z,86.51
2023-03-06T06:41:26.876Z,85.99
2023-03-06T06:42:09.576Z,86.19
2023-03-06T06:42:52.444Z,85.72
2023-03-06T06:43:51.445Z,86.13
2023-03-06T06:44:51.443Z,85.93
2023-03-06T06:45:52.109Z,86.13
2023-03-06T06:47:23.564Z,86.55
2023-03-06T06:47:52.496Z,86.03
2023-03-06T06:48:51.406Z,86.09
2023-03-06T06:49:51.379Z,86.41
2023-03-06T06:50:51.386Z,86.41
2023-03-06T06:51:51.349Z,86.09
2023-03-06T06:52:51.339Z,85.99
2023-03-06T06:53:51.345Z,85.51
2023-03-06T06:54:51.335Z,85.61
2023-03-06T06:55:51.354Z,86.03
2023-03-06T06:56:51.299Z,85.30
2023-03-06T06:57:51.285Z,85.72
2023-03-06T06:58:51.288Z,85.51
2023-03-06T06:59:53.800Z,85.72
2023-03-06T07:00:51.252Z,85.72
2023-03-06T07:01:51.297Z,85.72
2023-03-06T07:02:51.293Z,85.51
2023-03-06T07:03:51.264Z,85.41
2023-03-06T07:05:03.163Z,85.93
2023-03-06T07:05:52.204Z,85.61
2023-03-06T07:06:51.192Z,86.03
2023-03-06T07:07:51.177Z,86.55
2023-03-06T07:08:51.208Z,86.65
2023-03-06T07:09:51.157Z,86.30
2023-03-06T07:10:51.276Z,85.99
2023-03-06T07:11:51.133Z,86.03
2023-03-06T07:12:51.126Z,85.99
2023-03-06T07:13:58.253Z,85.26
2023-03-06T07:14:51.106Z,85.26
2023-03-06T07:15:51.166Z,85.26
2023-03-06T07:16:51.088Z,85.26
2023-03-06T07:17:51.096Z,85.57
2023-03-06T07:18:51.101Z,85.05
2023-03-06T07:19:51.051Z,85.68
2023-03-06T07:20:51.042Z,85.16
2023-03-06T07:21:51.026Z,85.47
2023-03-06T07:22:52.025Z,85.47
2023-03-06T07:23:51.034Z,85.47
2023-03-06T07:24:51.003Z,85.47
2023-03-06T07:25:50.983Z,85.05
2023-03-06T07:26:50.975Z,84.95
2023-03-06T07:27:53.750Z,85.26
2023-03-06T07:28:52.828Z,85.36
2023-03-06T07:29:50.940Z,85.16
2023-03-06T07:30:50.968Z,85.26
2023-03-06T07:31:50.929Z,85.26
2023-03-06T07:32:50.912Z,85.16
2023-03-06T07:33:50.917Z,85.47
2023-03-06T07:34:50.912Z,85.36
2023-03-06T07:35:50.930Z,85.26
2023-03-06T07:36:50.965Z,85.16
2023-03-06T07:37:50.857Z,85.36
2023-03-06T07:38:50.935Z,85.26
2023-03-06T07:39:50.836Z,85.64
2023-03-06T07:40:50.831Z,85.43
2023-03-06T07:41:50.824Z,85.47
2023-03-06T07:42:50.809Z,85.43
2023-03-06T07:43:50.812Z,85.47
2023-03-06T07:44:50.787Z,84.95
2023-03-06T07:45:50.773Z,85.22
2023-03-06T07:46:50.870Z,85.43
2023-03-06T07:47:50.764Z,85.33
2023-03-06T07:48:50.808Z,85.39
2023-03-06T07:49:50.731Z,85.02
2023-03-06T07:50:50.738Z,85.19
2023-03-06T07:51:50.708Z,84.77
2023-03-06T07:52:50.706Z,84.77
2023-03-06T07:53:50.775Z,84.11
2023-03-06T07:54:50.680Z,83.80
2023-03-06T07:55:50.671Z,83.01
2023-03-06T07:56:50.690Z,83.22
2023-03-06T07:57:50.653Z,83.01
2023-03-06T07:58:50.656Z,82.70
2023-03-06T07:59:50.713Z,83.01
2023-03-06T08:00:50.619Z,82.90
2023-03-06T08:01:50.601Z,83.17
2023-03-06T08:02:50.651Z,83.28
2023-03-06T08:03:50.657Z,82.86
2023-03-06T08:04:50.627Z,82.34
2023-03-06T08:05:50.558Z,82.70
2023-03-06T08:06:50.590Z,81.93
2023-03-06T08:07:50.538Z,82.03
2023-03-06T08:08:50.617Z,81.97
2023-03-06T08:09:50.524Z,82.03
2023-03-06T08:10:50.505Z,81.93
2023-03-06T08:11:50.493Z,82.24
2023-03-06T08:12:50.485Z,82.03
2023-03-06T08:13:50.484Z,81.93
2023-03-06T08:14:50.458Z,82.03
2023-03-06T08:15:50.454Z,81.93
2023-03-06T08:16:50.437Z,81.41
2023-03-06T08:17:50.424Z,81.41
2023-03-06T08:18:50.446Z,81.62
2023-03-06T08:19:50.404Z,81.56
2023-03-06T08:20:50.399Z,81.30
2023-03-06T08:21:50.384Z,81.30
2023-03-06T08:22:50.395Z,81.20
2023-03-06T08:23:50.366Z,81.62
2023-03-06T08:24:50.347Z,81.62
2023-03-06T08:25:50.335Z,81.20
2023-03-06T08:26:50.330Z,81.20
2023-03-06T08:27:50.313Z,81.35
2023-03-06T08:28:50.326Z,81.51
2023-03-06T08:29:50.289Z,81.51
2023-03-06T08:30:50.283Z,81.41
2023-03-06T08:31:50.421Z,81.56
2023-03-06T08:32:50.258Z,81.87
2023-03-06T08:33:50.273Z,81.66
2023-03-06T08:34:50.259Z,81.56
2023-03-06T08:35:50.249Z,82.07
2023-03-06T08:36:50.293Z,81.97
2023-03-06T08:37:50.210Z,82.07
2023-03-06T08:38:50.260Z,82.18
2023-03-06T08:39:50.178Z,82.39
2023-03-06T08:40:50.184Z,82.59
2023-03-06T08:41:50.159Z,82.39
2023-03-06T08:42:50.152Z,82.49
2023-03-06T08:43:50.150Z,82.70
2023-03-06T08:44:50.153Z,82.07
2023-03-06T08:45:50.154Z,81.80
2023-03-06T08:46:50.105Z,81.59
2023-03-06T08:47:50.094Z,82.11
2023-03-06T08:48:50.112Z,82.11
2023-03-06T08:49:50.112Z,82.07
2023-03-06T08:50:50.108Z,81.70
2023-03-06T08:51:50.049Z,81.56
2023-03-06T08:52:50.046Z,81.70
2023-03-06T08:53:50.053Z,81.59
2023-03-06T08:54:50.036Z,81.76
2023-03-06T08:55:50.007Z,81.56
2023-03-06T08:56:49.996Z,81.56
2023-03-06T08:57:49.989Z,81.66
2023-03-06T08:58:49.999Z,81.76
2023-03-06T08:59:49.969Z,81.56
2023-03-06T09:00:50.060Z,81.82
2023-03-06T09:01:49.940Z,81.56
2023-03-06T09:02:49.943Z,81.66
2023-03-06T09:03:49.964Z,81.45
2023-03-06T09:04:49.913Z,81.87
2023-03-06T09:05:49.897Z,81.56
2023-03-06T09:06:49.897Z,82.01
2023-03-06T09:07:49.874Z,81.70
2023-03-06T09:08:49.883Z,81.70
2023-03-06T09:09:49.872Z,81.59
2023-03-06T09:10:49.930Z,81.70
2023-03-06T09:11:49.834Z,81.76
2023-03-06T09:12:52.078Z,81.70
2023-03-06T09:13:49.851Z,81.80
2023-03-06T09:14:49.798Z,81.49
2023-03-06T09:15:49.820Z,81.59
2023-03-06T09:16:49.875Z,81.49
2023-03-06T09:17:49.822Z,81.87
2023-03-06T09:18:49.759Z,81.87
2023-03-06T09:19:49.746Z,81.66
2023-03-06T09:20:49.750Z,81.66
2023-03-06T09:21:49.728Z,81.56
2023-03-06T09:22:49.729Z,81.35
2023-03-06T09:23:49.774Z,81.35
2023-03-06T09:24:49.695Z,81.45
2023-03-06T09:25:49.700Z,81.04
2023-03-06T09:26:51.599Z,81.14
2023-03-06T09:27:58.235Z,81.76
2023-03-06T09:28:50.661Z,81.56
2023-03-06T09:29:49.644Z,81.45
2023-03-06T09:30:49.690Z,81.30
2023-03-06T09:31:49.623Z,81.04
2023-03-06T09:32:49.610Z,80.31
2023-03-06T09:33:49.612Z,80.31
2023-03-06T09:34:49.589Z,80.00
2023-03-06T09:35:49.650Z,80.10
2023-03-06T09:36:56.862Z,80.21
2023-03-06T09:37:50.559Z,80.00
2023-03-06T09:38:49.568Z,80.00
2023-03-06T09:39:49.536Z,80.00
2023-03-06T09:40:49.531Z,80.10
2023-03-06T09:41:49.567Z,79.48
2023-03-06T09:42:49.525Z,80.00
2023-03-06T09:43:49.506Z,80.00
2023-03-06T09:44:49.483Z,79.79
2023-03-06T09:45:49.549Z,79.90
2023-03-06T09:46:49.457Z,79.96
2023-03-06T09:47:49.458Z,79.75
2023-03-06T09:48:49.452Z,79.85
2023-03-06T09:49:49.457Z,79.24
2023-03-06T09:50:49.415Z,79.03
2023-03-06T09:51:49.412Z,80.00
2023-03-06T09:52:49.395Z,79.65
2023-03-06T09:53:49.421Z,79.55
2023-03-06T09:54:49.400Z,79.85
2023-03-06T09:55:49.359Z,79.85
2023-03-06T09:56:49.371Z,79.85
2023-03-06T09:57:51.085Z,79.75
2023-03-06T09:58:49.359Z,79.55
2023-03-06T09:59:49.318Z,79.65
2023-03-06T10:00:49.303Z,79.24
2023-03-06T10:01:49.296Z,79.34
2023-03-06T10:02:49.436Z,79.13
2023-03-06T10:03:49.308Z,78.72
2023-03-06T10:04:49.300Z,78.20
2023-03-06T10:05:49.248Z,78.51
2023-03-06T10:06:49.247Z,78.58
2023-03-06T10:07:49.231Z,78.27
2023-03-06T10:08:49.232Z,78.51
2023-03-06T10:09:49.212Z,78.58
2023-03-06T10:10:49.193Z,78.47
2023-03-06T10:11:49.186Z,78.27
2023-03-06T10:12:49.172Z,77.75
2023-03-06T10:13:49.172Z,77.85
2023-03-06T10:14:49.477Z,77.95
2023-03-06T10:15:49.203Z,77.95
2023-03-06T10:16:49.135Z,78.16
2023-03-06T10:17:49.130Z,77.75
2023-03-06T10:18:49.120Z,77.64
2023-03-06T10:19:49.099Z,77.75
2023-03-06T10:20:49.087Z,77.64
2023-03-06T10:21:49.096Z,77.85
2023-03-06T10:23:00.674Z,77.99
2023-03-06T10:23:50.077Z,78.06
2023-03-06T10:24:49.050Z,78.16
2023-03-06T10:25:49.036Z,78.58
2023-03-06T10:26:49.146Z,79.30
2023-03-06T10:27:49.015Z,78.47
2023-03-06T10:28:49.072Z,78.27
2023-03-06T10:30:01.568Z,78.47
2023-03-06T10:30:50.066Z,78.37
2023-03-06T10:31:49.676Z,78.47
2023-03-06T10:32:49.677Z,77.95
2023-03-06T10:33:48.987Z,78.09
2023-03-06T10:34:48.950Z,78.27
2023-03-06T10:35:48.960Z,78.37
2023-03-06T10:36:48.919Z,77.95
2023-03-06T10:37:48.920Z,77.16
2023-03-06T10:38:49.033Z,77.26
2023-03-06T10:39:48.887Z,77.06
2023-03-06T10:40:48.890Z,77.02
2023-03-06T10:41:48.866Z,77.44
2023-03-06T10:42:53.974Z,76.85
2023-03-06T10:43:49.848Z,76.23
2023-03-06T10:44:48.834Z,76.33
2023-03-06T10:45:49.693Z,76.95
2023-03-06T10:46:48.996Z,77.06
2023-03-06T10:47:48.801Z,77.78
2023-03-06T10:48:48.787Z,77.51
2023-03-06T10:49:48.819Z,78.13
2023-03-06T10:50:48.792Z,77.40
2023-03-06T10:51:48.760Z,77.30
2023-03-06T10:52:48.742Z,77.82
2023-03-06T10:53:48.738Z,77.82
2023-03-06T10:54:48.749Z,77.82
2023-03-06T10:55:48.722Z,78.41
2023-03-06T10:56:48.704Z,78.61
2023-03-06T10:57:48.694Z,78.61
2023-03-06T10:58:48.703Z,78.30
2023-03-06T10:59:48.669Z,77.78
2023-03-06T11:00:48.667Z,78.20
2023-03-06T11:01:48.685Z,77.78
2023-03-06T11:02:48.683Z,77.54
2023-03-06T11:03:48.635Z,77.47
2023-03-06T11:04:48.655Z,77.47
2023-03-06T11:05:48.603Z,78.27
2023-03-06T11:06:48.596Z,77.44
2023-03-06T11:07:48.580Z,77.64
2023-03-06T11:08:48.569Z,77.12
2023-03-06T11:09:48.595Z,77.64
2023-03-06T11:10:48.556Z,77.33
2023-03-06T11:11:48.536Z,77.95
2023-03-06T11:12:48.530Z,77.02
2023-03-06T11:13:48.521Z,77.44
2023-03-06T11:14:48.541Z,77.68
2023-03-06T11:15:48.514Z,78.09
2023-03-06T11:16:48.485Z,77.85
2023-03-06T11:17:48.485Z,78.06
2023-03-06T11:18:48.484Z,78.20
2023-03-06T11:19:48.461Z,77.85
2023-03-06T11:20:52.508Z,78.06
2023-03-06T11:21:48.431Z,77.75
2023-03-06T11:22:49.287Z,77.81
2023-03-06T11:23:48.410Z,77.71
2023-03-06T11:24:48.426Z,77.71
2023-03-06T11:25:48.390Z,78.02
2023-03-06T11:26:48.375Z,76.74
2023-03-06T11:27:48.421Z,76.26
2023-03-06T11:28:48.519Z,75.81
2023-03-06T11:29:48.353Z,75.81
2023-03-06T11:30:48.342Z,75.29
2023-03-06T11:31:48.317Z,75.12
2023-03-06T11:32:48.351Z,75.02
2023-03-06T11:33:48.294Z,75.09
2023-03-06T11:34:50.410Z,74.15
2023-03-06T11:35:48.335Z,73.22
2023-03-06T11:36:48.262Z,73.15
2023-03-06T11:37:48.251Z,72.84
2023-03-06T11:38:48.245Z,72.84
2023-03-06T11:39:48.240Z,73.05
2023-03-06T11:40:48.258Z,72.74
2023-03-06T11:41:48.213Z,72.84
2023-03-06T11:42:48.202Z,73.46
2023-03-06T11:43:48.190Z,73.25
2023-03-06T11:44:48.222Z,73.15
2023-03-06T11:45:48.184Z,73.15
2023-03-06T11:46:48.184Z,73.43
2023-03-06T11:47:48.148Z,74.08
2023-03-06T11:48:48.173Z,73.98
2023-03-06T11:49:48.127Z,73.57
2023-03-06T11:50:48.164Z,73.77
2023-03-06T11:51:48.117Z,73.53
2023-03-06T11:52:48.087Z,73.74
2023-03-06T11:53:48.089Z,74.19
2023-03-06T11:54:48.145Z,74.15
2023-03-06T11:55:48.061Z,73.84
2023-03-06T11:56:48.047Z,73.01
2023-03-06T11:57:48.039Z,74.05
2023-03-06T11:58:48.032Z,73.74
2023-03-06T11:59:48.040Z,73.01
2023-03-06T12:00:48.009Z,72.91
2023-03-06T12:01:48.113Z,73.63
2023-03-06T12:02:47.983Z,73.94
2023-03-06T12:03:48.017Z,73.84
2023-03-06T12:04:47.982Z,73.74
2023-03-06T12:05:47.973Z,72.50
2023-03-06T12:06:47.973Z,72.77
2023-03-06T12:07:47.951Z,73.32
2023-03-06T12:08:47.934Z,72.77
2023-03-06T12:09:47.932Z,72.15
2023-03-06T12:10:51.718Z,72.25
2023-03-06T12:11:47.887Z,72.25
2023-03-06T12:12:47.880Z,72.05
2023-03-06T12:13:47.871Z,72.15
2023-03-06T12:14:47.875Z,71.63
2023-03-06T12:15:47.848Z,71.94
2023-03-06T12:16:47.909Z,72.88
2023-03-06T12:17:47.822Z,71.73
2023-03-06T12:18:47.812Z,71.08
2023-03-06T12:19:47.844Z,71.70
2023-03-06T12:20:47.789Z,71.81
2023-03-06T12:21:47.778Z,71.19
2023-03-06T12:22:58.134Z,71.50
2023-03-06T12:23:48.772Z,71.08
2023-03-06T12:24:47.765Z,70.67
2023-03-06T12:25:47.750Z,71.39
2023-03-06T12:26:47.729Z,70.67
2023-03-06T12:27:47.715Z,70.77
2023-03-06T12:28:47.704Z,70.64
2023-03-06T12:29:47.713Z,70.12
2023-03-06T12:30:47.688Z,70.22
2023-03-06T12:31:47.718Z,69.50
2023-03-06T12:32:47.713Z,68.98
2023-03-06T12:33:47.649Z,70.26
2023-03-06T12:34:47.679Z,70.32
2023-03-06T12:35:47.679Z,70.64
2023-03-06T12:36:47.637Z,70.64
2023-03-06T12:37:47.633Z,70.01
2023-03-06T12:38:47.612Z,69.60
2023-03-06T12:39:47.611Z,70.12
2023-03-06T12:40:47.571Z,70.22
2023-03-06T12:41:47.566Z,70.32
2023-03-06T12:42:47.552Z,70.12
2023-03-06T12:43:47.543Z,70.01
2023-03-06T12:44:47.543Z,68.98
2023-03-06T12:45:47.580Z,69.40
2023-03-06T12:46:47.509Z,69.29
2023-03-06T12:47:47.498Z,69.29
2023-03-06T12:48:47.497Z,68.77
2023-03-06T12:49:48.465Z,68.77
2023-03-06T12:50:47.475Z,69.29
2023-03-06T12:51:47.473Z,69.50
2023-03-06T12:52:47.447Z,69.50